Time;durP1;ratioP1;P1;durP2;ratioP2;P2;SDS_P1;SDS_P2;PMS_P1;PMS_P2;Temp;Humidity;BMP_temperature;BMP_pressure;BME280_temperature;BME280_humidity;BME280_pressure;Samples;Min_cycle;Max_cycle;Signal;HPM_P1;HPM_P2
2024/04/17 00:02:03;;;;;;;2.53;1.00;;;;;;;5.23;100.00;95878.72;5301844;26;20573;-66
2024/04/17 00:04:28;;;;;;;2.08;1.35;;;;;;;5.22;100.00;95860.84;5325576;26;20085;-65
2024/04/17 00:06:54;;;;;;;2.45;1.20;;;;;;;5.13;100.00;95869.19;5325747;26;20004;-66
2024/04/17 00:09:19;;;;;;;1.75;1.10;;;;;;;5.04;100.00;95872.09;5318304;26;20008;-67
2024/04/17 00:11:44;;;;;;;2.63;1.25;;;;;;;5.05;100.00;95870.94;5324723;26;20001;-65
2024/04/17 00:14:11;;;;;;;5.85;1.35;;;;;;;5.05;100.00;95865.50;5318626;26;20367;-66
2024/04/17 00:16:37;;;;;;;1.58;1.20;;;;;;;4.87;100.00;95867.78;5327444;26;20020;-65
2024/04/17 00:19:02;;;;;;;1.45;1.20;;;;;;;4.84;100.00;95867.69;5321792;26;20001;-66
2024/04/17 00:21:28;;;;;;;2.85;1.50;;;;;;;4.83;100.00;95875.06;5323594;26;20029;-64
2024/04/17 00:23:53;;;;;;;2.90;1.40;;;;;;;4.82;100.00;95867.25;5296473;26;20012;-65
2024/04/17 00:26:18;;;;;;;2.15;1.45;;;;;;;4.83;100.00;95863.44;5320479;26;20537;-67
2024/04/17 00:28:44;;;;;;;1.60;1.20;;;;;;;4.78;100.00;95872.59;5318461;26;19998;-67
2024/04/17 00:31:10;;;;;;;1.38;1.20;;;;;;;4.82;100.00;95868.03;5315458;26;20001;-68
2024/04/17 00:33:35;;;;;;;3.28;1.40;;;;;;;4.73;100.00;95872.84;5308083;26;20040;-69
2024/04/17 00:36:01;;;;;;;2.47;1.50;;;;;;;4.71;100.00;95864.28;5301752;26;20009;-67
2024/04/17 00:38:26;;;;;;;3.67;1.60;;;;;;;4.74;100.00;95867.09;5317394;26;19997;-67
2024/04/17 00:40:53;;;;;;;2.00;1.40;;;;;;;4.68;100.00;95863.06;5315704;26;20001;-69
2024/04/17 00:43:18;;;;;;;2.22;1.58;;;;;;;4.71;100.00;95865.06;5318073;26;20002;-69
2024/04/17 00:45:46;;;;;;;4.22;1.38;;;;;;;4.70;100.00;95858.06;5327196;26;20375;-68
2024/04/17 00:48:13;;;;;;;2.65;1.48;;;;;;;4.69;100.00;95863.84;5320401;26;20009;-66
2024/04/17 00:50:40;;;;;;;2.25;1.10;;;;;;;4.63;100.00;95863.31;5295082;26;20012;-71
2024/04/17 00:53:08;;;;;;;2.05;1.40;;;;;;;4.62;100.00;95864.44;5289565;26;20016;-69
2024/04/17 00:55:37;;;;;;;3.15;1.50;;;;;;;4.48;100.00;95859.44;5325426;26;20008;-70
2024/04/17 00:58:02;;;;;;;2.80;1.85;;;;;;;4.47;100.00;95871.44;5292061;26;20074;-72
2024/04/17 01:00:28;;;;;;;2.17;1.38;;;;;;;4.55;100.00;95865.03;5317146;26;20001;-69
2024/04/17 01:02:53;;;;;;;1.98;1.35;;;;;;;4.43;100.00;95867.03;5319046;26;20030;-72
2024/04/17 01:05:19;;;;;;;1.75;1.20;;;;;;;4.56;100.00;95869.34;5317430;26;20001;-70
2024/04/17 01:07:45;;;;;;;1.67;1.30;;;;;;;4.41;100.00;95864.66;5324170;26;20437;-71
2024/04/17 01:10:10;;;;;;;2.47;1.65;;;;;;;4.50;100.00;95856.38;5316115;26;20070;-69
2024/04/17 01:12:35;;;;;;;2.83;1.33;;;;;;;4.49;100.00;95861.03;5326450;26;20013;-69
2024/04/17 01:15:01;;;;;;;1.85;1.40;;;;;;;4.58;100.00;95855.44;5325026;26;20033;-70
2024/04/17 01:17:27;;;;;;;2.17;1.60;;;;;;;4.49;100.00;95852.09;5322891;26;20016;-71
2024/04/17 01:19:53;;;;;;;1.85;1.60;;;;;;;4.46;100.00;95852.78;5326494;26;20037;-73
2024/04/17 01:22:19;;;;;;;1.80;1.55;;;;;;;4.49;100.00;95858.31;5293210;26;20008;-71
2024/04/17 01:24:44;;;;;;;3.63;1.80;;;;;;;4.46;100.00;95847.38;5328154;26;20058;-71
2024/04/17 01:27:09;;;;;;;2.10;1.70;;;;;;;4.45;100.00;95843.06;5320213;26;20012;-72
2024/04/17 01:29:35;;;;;;;2.72;1.63;;;;;;;4.53;100.00;95845.63;5315094;26;20029;-70
2024/04/17 01:32:00;;;;;;;2.50;1.70;;;;;;;4.46;100.00;95840.00;5320157;26;19997;-70
2024/04/17 01:34:26;;;;;;;2.88;1.92;;;;;;;4.35;100.00;95838.94;5280147;26;20059;-70
2024/04/17 01:36:52;;;;;;;4.43;2.20;;;;;;;4.38;100.00;95838.25;5327850;26;19997;-70
2024/04/17 01:39:18;;;;;;;3.10;2.30;;;;;;;4.36;100.00;95835.13;5318278;26;20008;-71
2024/04/17 01:41:43;;;;;;;2.65;1.90;;;;;;;4.34;100.00;95835.47;5338036;26;20008;-70
2024/04/17 01:44:08;;;;;;;2.72;1.90;;;;;;;4.43;100.00;95827.16;5329394;26;20012;-69
2024/04/17 01:46:34;;;;;;;3.60;2.17;;;;;;;4.39;100.00;95834.41;5325643;26;20554;-68
2024/04/17 01:48:59;;;;;;;4.82;2.10;;;;;;;4.35;100.00;95836.25;5328021;26;20004;-68
2024/04/17 01:51:24;;;;;;;3.50;2.00;;;;;;;4.43;100.00;95831.78;5318470;26;20481;-70
2024/04/17 01:53:50;;;;;;;3.38;2.40;;;;;;;4.33;100.00;95841.22;5325605;26;20339;-69
2024/04/17 01:56:15;;;;;;;4.30;2.15;;;;;;;4.35;100.00;95841.66;5315285;26;20033;-70
2024/04/17 01:58:40;;;;;;;3.15;1.90;;;;;;;4.30;100.00;95831.84;5326349;26;20001;-69
2024/04/17 02:01:06;;;;;;;2.63;1.90;;;;;;;4.34;100.00;95830.03;5308619;26;20084;-69
2024/04/17 02:03:36;;;;;;;3.38;2.25;;;;;;;4.33;100.00;95830.38;5324374;26;20013;-69
2024/04/17 02:06:01;;;;;;;2.58;2.13;;;;;;;4.42;100.00;95830.22;5324637;26;20316;-70
2024/04/17 02:08:27;;;;;;;4.22;2.00;;;;;;;4.44;100.00;95831.44;5291457;26;20112;-71
2024/04/17 02:10:52;;;;;;;3.85;2.22;;;;;;;4.44;100.00;95828.72;5264939;26;20045;-70
2024/04/17 02:13:18;;;;;;;3.88;2.22;;;;;;;4.45;100.00;95833.03;5288545;26;19997;-68
2024/04/17 02:15:43;;;;;;;2.85;2.08;;;;;;;4.49;100.00;95819.56;5328433;26;20001;-69
2024/04/17 02:18:08;;;;;;;5.00;2.10;;;;;;;4.48;100.00;95826.88;5319481;26;20348;-71
2024/04/17 02:20:34;;;;;;;3.38;1.80;;;;;;;4.36;100.00;95832.41;5296884;26;20001;-73
2024/04/17 02:22:59;;;;;;;3.08;2.13;;;;;;;4.33;100.00;95830.38;5325069;26;20016;-70
2024/04/17 02:25:25;;;;;;;2.83;2.10;;;;;;;4.35;100.00;95831.59;5318304;26;20033;-70
2024/04/17 02:27:50;;;;;;;4.07;2.58;;;;;;;4.38;100.00;95832.84;5324506;26;20447;-69
2024/04/17 02:30:16;;;;;;;4.05;2.38;;;;;;;4.42;100.00;95828.28;5311760;26;20020;-73
2024/04/17 02:32:41;;;;;;;5.18;2.60;;;;;;;4.42;100.00;95824.81;5317059;26;20079;-69
2024/04/17 02:35:06;;;;;;;3.92;2.20;;;;;;;4.46;100.00;95834.59;5320511;26;20009;-68
2024/04/17 02:37:32;;;;;;;3.72;2.20;;;;;;;4.39;100.00;95828.97;5326831;26;20384;-70
2024/04/17 02:39:57;;;;;;;4.78;2.50;;;;;;;4.40;100.00;95827.84;5308153;26;20078;-71
2024/04/17 02:42:23;;;;;;;4.53;2.08;;;;;;;4.43;100.00;95831.78;5286053;26;20261;-68
2024/04/17 02:44:48;;;;;;;3.40;2.50;;;;;;;4.48;100.00;95823.41;5290554;26;20001;-70
2024/04/17 02:47:13;;;;;;;4.72;2.47;;;;;;;4.45;100.00;95822.19;5295393;26;20008;-69
2024/04/17 02:49:39;;;;;;;3.33;2.20;;;;;;;4.48;100.00;95823.41;5288382;26;20009;-70
2024/04/17 02:52:04;;;;;;;4.90;2.00;;;;;;;4.35;100.00;95826.19;5318330;26;20001;-70
2024/04/17 02:54:29;;;;;;;4.72;2.63;;;;;;;4.51;100.00;95828.91;5301723;26;20015;-71
2024/04/17 02:56:55;;;;;;;3.10;2.03;;;;;;;4.54;100.00;95841.00;5336442;26;20012;-69
2024/04/17 02:59:20;;;;;;;2.38;1.90;;;;;;;4.42;100.00;95841.84;5321652;26;20016;-68
2024/04/17 03:01:45;;;;;;;2.85;1.85;;;;;;;4.32;100.00;95840.44;5315688;26;20045;-69
2024/04/17 03:04:11;;;;;;;2.20;1.70;;;;;;;4.39;100.00;95842.53;5317384;26;20017;-71
2024/04/17 03:06:36;;;;;;;6.50;1.92;;;;;;;4.37;100.00;95842.88;5327461;26;20005;-71
2024/04/17 03:09:02;;;;;;;4.38;2.00;;;;;;;4.35;100.00;95841.66;5321386;26;20065;-73
2024/04/17 03:11:27;;;;;;;2.90;1.85;;;;;;;4.43;100.00;95839.91;5326278;26;20000;-69
2024/04/17 03:13:53;;;;;;;4.00;2.10;;;;;;;4.40;100.00;95849.53;5327518;26;20001;-68
2024/04/17 03:16:18;;;;;;;2.35;1.80;;;;;;;4.46;100.00;95845.44;5320998;26;20000;-69
2024/04/17 03:18:43;;;;;;;3.00;2.03;;;;;;;4.54;100.00;95846.44;5327614;26;20284;-71
2024/04/17 03:21:09;;;;;;;5.13;1.90;;;;;;;4.39;100.00;95850.66;5317484;26;20020;-69
2024/04/17 03:23:34;;;;;;;2.15;1.58;;;;;;;4.45;100.00;95843.06;5329578;26;20001;-67
2024/04/17 03:26:00;;;;;;;2.60;1.80;;;;;;;4.38;100.00;95854.53;5296407;26;20000;-68
2024/04/17 03:28:27;;;;;;;3.70;1.90;;;;;;;4.35;100.00;95847.09;5322028;26;20001;-68
2024/04/17 03:30:53;;;;;;;3.53;2.00;;;;;;;4.35;100.00;95850.56;5290539;27;20017;-70
2024/04/17 03:33:18;;;;;;;4.25;2.03;;;;;;;4.45;100.00;95849.28;5289164;26;20001;-69
2024/04/17 03:35:57;;;;;;;3.70;1.83;;;;;;;4.37;100.00;95848.31;5329094;26;20012;-71
2024/04/17 03:38:24;;;;;;;3.92;2.15;;;;;;;4.32;100.00;95845.88;5295244;26;20437;-68
2024/04/17 03:40:50;;;;;;;2.83;1.67;;;;;;;4.35;100.00;95852.50;5328733;26;20013;-69
2024/04/17 03:43:15;;;;;;;3.78;1.92;;;;;;;4.45;100.00;95851.19;5291086;26;20052;-70
2024/04/17 03:45:41;;;;;;;4.40;1.63;;;;;;;4.32;100.00;95850.47;5298494;26;20516;-69
2024/04/17 03:48:07;;;;;;;2.92;1.73;;;;;;;4.32;100.00;95843.16;5309374;26;20007;-69
2024/04/17 03:50:32;;;;;;;3.88;2.38;;;;;;;4.31;100.00;95848.91;5297333;26;20015;-69
2024/04/17 03:52:58;;;;;;;4.75;2.15;;;;;;;4.42;100.00;95847.28;5298210;26;20091;-71
2024/04/17 03:55:23;;;;;;;3.42;2.40;;;;;;;4.34;100.00;95846.31;5290546;26;20029;-68
2024/04/17 03:57:50;;;;;;;4.60;2.63;;;;;;;4.44;100.00;95849.63;5338052;26;20020;-68
2024/04/17 04:00:15;;;;;;;3.50;2.08;;;;;;;4.43;100.00;95853.47;5332664;26;20624;-68
2024/04/17 04:02:41;;;;;;;2.58;2.05;;;;;;;4.43;100.00;95858.91;5338508;26;19993;-69
2024/04/17 04:05:06;;;;;;;2.13;1.63;;;;;;;4.42;100.00;95851.91;5325398;26;19996;-66
2024/04/17 04:07:32;;;;;;;3.05;1.73;;;;;;;4.49;100.00;95847.47;5330134;26;20464;-67
2024/04/17 04:09:57;;;;;;;4.15;2.00;;;;;;;4.59;100.00;95857.00;5324570;26;19997;-68
2024/04/17 04:12:23;;;;;;;4.68;2.38;;;;;;;4.46;100.00;95853.56;5306395;26;21054;-69
2024/04/17 04:14:49;;;;;;;3.67;1.80;;;;;;;4.43;100.00;95856.19;5326340;26;20016;-68
2024/04/17 04:17:14;;;;;;;2.92;1.73;;;;;;;4.31;100.00;95857.06;5321711;26;20028;-69
2024/04/17 04:19:39;;;;;;;3.50;1.60;;;;;;;4.41;100.00;95861.94;5326644;26;20012;-68
2024/04/17 04:22:05;;;;;;;3.35;1.65;;;;;;;4.44;100.00;95850.41;5318891;26;20060;-66
2024/04/17 04:24:30;;;;;;;2.55;1.98;;;;;;;4.52;100.00;95857.63;5355522;21;20028;-69
2024/04/17 04:26:55;;;;;;;2.42;1.80;;;;;;;4.36;100.00;95854.88;5332308;26;20001;-69
2024/04/17 04:29:21;;;;;;;2.67;1.40;;;;;;;4.31;100.00;95855.13;5293485;26;20016;-68
2024/04/17 04:31:46;;;;;;;3.55;1.70;;;;;;;4.23;100.00;95858.75;5361758;26;20000;-69
2024/04/17 04:34:12;;;;;;;2.25;1.65;;;;;;;4.20;100.00;95856.75;5327576;26;20571;-69
2024/04/17 04:36:37;;;;;;;2.90;1.65;;;;;;;4.16;100.00;95855.84;5319372;26;20791;-69
2024/04/17 04:39:03;;;;;;;2.50;1.40;;;;;;;4.18;100.00;95865.22;5364242;26;20020;-70
2024/04/17 04:41:30;;;;;;;2.58;1.95;;;;;;;4.19;100.00;95855.94;5383313;26;19988;-70
2024/04/17 04:43:55;;;;;;;3.85;1.80;;;;;;;4.21;100.00;95863.75;5361871;26;20000;-70
2024/04/17 04:46:21;;;;;;;2.20;1.80;;;;;;;4.22;100.00;95860.69;5352148;26;20945;-70
2024/04/17 04:48:46;;;;;;;4.10;1.77;;;;;;;4.17;100.00;95863.66;5351454;26;20001;-70
2024/04/17 04:51:11;;;;;;;4.13;2.30;;;;;;;4.28;100.00;95869.34;5347529;26;20004;-70
2024/04/17 04:53:37;;;;;;;3.38;1.83;;;;;;;4.33;100.00;95860.19;5359654;26;20011;-69
2024/04/17 04:56:03;;;;;;;3.35;2.30;;;;;;;4.33;100.00;95860.97;5349801;26;20001;-69
2024/04/17 04:58:29;;;;;;;2.80;2.25;;;;;;;4.30;100.00;95864.38;5361857;26;20012;-69
2024/04/17 05:00:55;;;;;;;3.28;2.72;;;;;;;4.37;100.00;95861.84;5305873;26;20002;-69
2024/04/17 05:03:21;;;;;;;3.08;2.25;;;;;;;4.19;100.00;95861.38;5311896;26;21596;-69
2024/04/17 05:05:47;;;;;;;3.90;2.83;;;;;;;4.29;100.00;95862.03;5350500;26;20000;-69
2024/04/17 05:08:12;;;;;;;5.55;3.72;;;;;;;4.44;100.00;95860.47;5350772;26;20037;-68
2024/04/17 05:10:38;;;;;;;3.55;2.00;;;;;;;4.31;100.00;95855.13;5361561;26;20443;-69
2024/04/17 05:13:04;;;;;;;3.88;2.20;;;;;;;4.33;100.00;95862.91;5352369;26;20040;-69
2024/04/17 05:15:29;;;;;;;2.85;2.13;;;;;;;4.46;100.00;95866.34;5330960;26;20001;-70
2024/04/17 05:17:54;;;;;;;2.40;2.03;;;;;;;4.47;100.00;95852.44;5360262;26;20000;-70
2024/04/17 05:20:21;;;;;;;3.63;2.08;;;;;;;4.44;100.00;95855.06;5319024;26;20872;-69
2024/04/17 05:22:46;;;;;;;2.47;2.05;;;;;;;4.35;100.00;95856.00;5373130;26;20000;-70
2024/04/17 05:25:12;;;;;;;3.78;2.20;;;;;;;4.38;100.00;95868.88;5351927;26;20000;-72
2024/04/17 05:27:37;;;;;;;3.25;2.03;;;;;;;4.54;100.00;95860.78;5329198;26;20000;-70
2024/04/17 05:30:08;;;;;;;4.03;1.80;;;;;;;4.44;100.00;95866.69;5354224;26;20080;-69
2024/04/17 05:32:34;;;;;;;5.75;2.42;;;;;;;4.48;100.00;95862.13;5345904;26;20000;-70
2024/04/17 05:34:59;;;;;;;6.45;2.30;;;;;;;4.61;100.00;95865.59;5346897;26;20365;-70
2024/04/17 05:37:24;;;;;;;2.55;1.73;;;;;;;4.58;100.00;95872.50;5352281;26;20011;-69
2024/04/17 05:39:50;;;;;;;3.42;1.95;;;;;;;4.67;100.00;95875.03;5350093;26;20001;-69
2024/04/17 05:42:15;;;;;;;2.30;1.67;;;;;;;4.62;100.00;95872.59;5365120;26;20198;-68
2024/04/17 05:44:41;;;;;;;2.83;2.13;;;;;;;4.77;100.00;95888.09;5373949;26;20001;-69
2024/04/17 05:47:06;;;;;;;2.35;1.70;;;;;;;4.81;100.00;95880.06;5323586;26;20413;-71
2024/04/17 05:49:31;;;;;;;3.10;1.77;;;;;;;4.86;100.00;95873.56;5359382;26;19996;-69
2024/04/17 05:51:57;;;;;;;2.17;1.45;;;;;;;4.98;100.00;95874.25;5349432;26;20453;-69
2024/04/17 05:54:23;;;;;;;2.08;1.70;;;;;;;4.83;100.00;95882.41;5353177;26;20655;-70
2024/04/17 05:56:49;;;;;;;3.42;1.52;;;;;;;5.07;100.00;95881.44;5360583;26;20000;-70
2024/04/17 05:59:14;;;;;;;2.22;1.60;;;;;;;4.98;100.00;95882.41;5352233;26;20033;-69
2024/04/17 06:01:40;;;;;;;2.85;1.50;;;;;;;4.69;100.00;95878.19;5346904;26;20016;-69
2024/04/17 06:04:05;;;;;;;1.95;1.42;;;;;;;4.87;100.00;95880.56;5321103;26;20418;-69
2024/04/17 06:06:31;;;;;;;3.72;1.30;;;;;;;5.04;100.00;95882.94;5326996;26;20008;-69
2024/04/17 06:08:56;;;;;;;4.05;1.30;;;;;;;4.96;100.00;95883.91;5360140;26;20004;-68
2024/04/17 06:11:23;;;;;;;1.80;1.40;;;;;;;5.06;100.00;95875.25;5322119;26;20320;-69
2024/04/17 06:13:49;;;;;;;2.13;1.27;;;;;;;5.11;100.00;95882.31;5328625;26;20118;-70
2024/04/17 06:16:14;;;;;;;2.35;1.60;;;;;;;5.31;100.00;95888.59;5352640;26;20008;-69
2024/04/17 06:18:40;;;;;;;1.95;1.35;;;;;;;5.46;100.00;95884.31;5358817;26;20054;-69
2024/04/17 06:21:05;;;;;;;3.03;1.65;;;;;;;5.22;100.00;95883.38;5323751;26;19996;-69
2024/04/17 06:23:31;;;;;;;2.50;1.50;;;;;;;5.00;100.00;95884.78;5371112;26;20000;-68
2024/04/17 06:25:56;;;;;;;3.08;1.50;;;;;;;5.06;100.00;95888.81;5365465;26;20346;-69
2024/04/17 06:28:21;;;;;;;1.70;1.23;;;;;;;4.99;100.00;95888.63;5321936;26;20015;-69
2024/04/17 06:30:47;;;;;;;1.85;1.52;;;;;;;4.97;100.00;95883.56;5359319;26;20458;-69
2024/04/17 06:33:12;;;;;;;2.25;1.48;;;;;;;4.98;100.00;95885.13;5354459;26;20396;-68
2024/04/17 06:35:38;;;;;;;2.67;1.60;;;;;;;4.99;100.00;95885.94;5366321;26;20078;-69
2024/04/17 06:38:03;;;;;;;1.88;1.40;;;;;;;5.06;100.00;95888.81;5379922;26;20008;-69
2024/04/17 06:40:28;;;;;;;1.45;1.33;;;;;;;5.11;100.00;95890.47;5388989;26;19992;-71
2024/04/17 06:42:54;;;;;;;4.03;2.35;;;;;;;5.22;100.00;95886.09;5389901;26;20039;-68
2024/04/17 06:45:19;;;;;;;2.47;1.80;;;;;;;5.08;100.00;95888.47;5345470;26;20424;-69
2024/04/17 06:47:45;;;;;;;4.10;1.90;;;;;;;5.27;100.00;95896.66;5375314;26;20015;-69
2024/04/17 06:50:10;;;;;;;2.20;1.70;;;;;;;5.58;100.00;95881.47;5366501;26;20000;-69
2024/04/17 06:52:35;;;;;;;3.67;1.83;;;;;;;5.43;100.00;95888.50;5351635;26;19996;-69
2024/04/17 06:55:02;;;;;;;3.70;2.05;;;;;;;5.69;100.00;95881.69;5360486;26;20004;-70
2024/04/17 06:57:28;;;;;;;2.75;1.90;;;;;;;5.82;100.00;95883.16;5360554;26;20011;-69
2024/04/17 06:59:54;;;;;;;2.90;1.67;;;;;;;5.63;100.00;95873.03;5351125;26;20001;-69
2024/04/17 07:02:19;;;;;;;2.35;1.60;;;;;;;5.77;100.00;95877.22;5337308;26;20035;-70
2024/04/17 07:04:44;;;;;;;2.28;1.70;;;;;;;5.72;100.00;95875.56;5343870;26;20397;-69
2024/04/17 07:07:10;;;;;;;2.70;1.70;;;;;;;5.85;100.00;95873.50;5354984;26;20426;-70
2024/04/17 07:09:35;;;;;;;2.33;1.80;;;;;;;5.76;100.00;95890.00;5360969;26;20435;-70
2024/04/17 07:12:01;;;;;;;4.10;1.95;;;;;;;5.70;100.00;95881.34;5361431;26;20015;-70
2024/04/17 07:14:26;;;;;;;4.57;1.60;;;;;;;5.70;100.00;95867.75;5356999;26;20918;-70
2024/04/17 07:16:51;;;;;;;1.90;1.33;;;;;;;5.72;100.00;95879.06;5361873;26;19996;-70
2024/04/17 07:19:17;;;;;;;2.83;1.67;;;;;;;5.79;100.00;95883.09;5352847;26;20032;-68
2024/04/17 07:21:42;;;;;;;2.15;1.48;;;;;;;6.00;100.00;95882.81;5362172;26;20334;-67
2024/04/17 07:24:07;;;;;;;4.00;2.25;;;;;;;5.97;100.00;95881.56;5358089;26;20020;-67
2024/04/17 07:26:33;;;;;;;4.43;2.22;;;;;;;5.99;100.00;95881.22;5362027;26;20041;-68
2024/04/17 07:28:58;;;;;;;3.28;2.20;;;;;;;5.89;100.00;95886.03;5362103;26;20001;-69
2024/04/17 07:31:24;;;;;;;3.78;2.45;;;;;;;5.93;100.00;95883.41;5349971;26;20017;-69
2024/04/17 07:33:49;;;;;;;4.28;2.10;;;;;;;5.97;100.00;95881.56;5348793;26;20073;-68
2024/04/17 07:36:15;;;;;;;6.47;2.50;;;;;;;5.99;100.00;95887.44;5352871;26;20000;-69
2024/04/17 07:38:40;;;;;;;3.90;2.67;;;;;;;5.62;100.00;95886.97;5361115;26;20024;-68
2024/04/17 07:41:06;;;;;;;6.22;2.90;;;;;;;5.75;100.00;95883.03;5353513;26;20040;-69
2024/04/17 07:43:31;;;;;;;4.15;2.88;;;;;;;5.71;100.00;95882.16;5359850;26;19997;-68
2024/04/17 07:46:01;;;;;;;4.50;2.92;;;;;;;5.69;100.00;95884.41;5377765;26;20023;-67
2024/04/17 07:48:27;;;;;;;4.40;2.90;;;;;;;5.78;100.00;95885.03;5360787;26;20023;-68
2024/04/17 07:50:53;;;;;;;4.68;2.40;;;;;;;5.88;100.00;95886.41;5360922;26;20000;-68
2024/04/17 07:53:18;;;;;;;7.28;2.92;;;;;;;6.00;100.00;95883.56;5352205;26;20101;-68
2024/04/17 07:55:44;;;;;;;5.28;2.58;;;;;;;6.22;100.00;95892.94;5361832;26;20015;-68
2024/04/17 07:58:09;;;;;;;6.40;3.15;;;;;;;5.97;100.00;95891.66;5352123;26;20000;-67
2024/04/17 08:00:35;;;;;;;3.40;2.50;;;;;;;5.97;100.00;95892.44;5359309;26;20012;-68
2024/04/17 08:03:02;;;;;;;3.10;2.15;;;;;;;5.75;100.00;95891.94;5354279;26;20457;-67
2024/04/17 08:05:27;;;;;;;6.32;2.70;;;;;;;5.62;100.00;95892.41;5349225;26;20000;-68
2024/04/17 08:07:53;;;;;;;3.50;2.20;;;;;;;5.63;100.00;95889.34;5361952;26;20342;-67
2024/04/17 08:10:19;;;;;;;3.25;2.22;;;;;;;5.58;100.00;95883.41;5352477;26;20120;-67
2024/04/17 08:12:44;;;;;;;5.15;2.03;;;;;;;5.38;100.00;95885.28;5360514;26;20448;-67
2024/04/17 08:15:12;;;;;;;4.40;2.30;;;;;;;5.75;100.00;95878.38;5324109;26;20008;-68
2024/04/17 08:17:38;;;;;;;2.33;1.52;;;;;;;5.62;100.00;95878.81;5361290;26;19996;-68
2024/04/17 08:20:04;;;;;;;3.08;1.90;;;;;;;5.49;100.00;95887.13;5353384;26;20078;-67
2024/04/17 08:22:29;;;;;;;2.92;1.50;;;;;;;5.65;100.00;95881.63;5316619;26;20000;-67
2024/04/17 08:24:54;;;;;;;4.35;1.85;;;;;;;5.72;100.00;95878.28;5358928;26;20076;-67
2024/04/17 08:27:20;;;;;;;2.75;1.80;;;;;;;5.78;100.00;95881.50;5334813;26;20064;-67
2024/04/17 08:29:45;;;;;;;2.85;1.77;;;;;;;6.10;100.00;95883.03;5353132;26;20078;-67
2024/04/17 08:32:11;;;;;;;2.38;1.60;;;;;;;6.01;100.00;95884.34;5317131;26;20053;-67
2024/04/17 08:34:36;;;;;;;2.70;1.90;;;;;;;6.09;100.00;95878.72;5373136;26;20055;-66
2024/04/17 08:37:01;;;;;;;4.53;1.98;;;;;;;6.28;100.00;95885.28;5350909;26;20009;-66
2024/04/17 08:39:27;;;;;;;2.22;1.65;;;;;;;6.20;100.00;95886.31;5350639;26;20004;-67
2024/04/17 08:41:55;;;;;;;3.33;1.48;;;;;;;6.27;100.00;95883.72;5373010;26;20004;-68
2024/04/17 08:44:29;;;;;;;3.05;1.50;;;;;;;6.37;100.00;95882.34;5352801;26;20016;-68
2024/04/17 08:46:55;;;;;;;2.13;1.50;;;;;;;6.58;100.00;95877.31;5366959;26;19996;-68
2024/04/17 08:49:21;;;;;;;2.40;1.52;;;;;;;6.40;100.00;95887.09;5362094;26;20098;-69
2024/04/17 08:51:47;;;;;;;2.13;1.50;;;;;;;6.51;100.00;95883.41;5351557;26;20008;-67
2024/04/17 08:54:15;;;;;;;3.72;1.65;;;;;;;6.69;100.00;95878.28;5322840;26;20001;-68
2024/04/17 08:56:41;;;;;;;3.20;1.60;;;;;;;6.92;100.00;95882.97;5352528;26;20046;-68
2024/04/17 08:59:07;;;;;;;2.17;1.52;;;;;;;7.07;100.00;95882.06;5316381;26;20000;-69
2024/04/17 09:01:35;;;;;;;2.15;1.48;;;;;;;6.77;100.00;95878.44;5360693;26;20001;-69
2024/04/17 09:04:05;;;;;;;2.08;1.40;;;;;;;7.02;100.00;95879.66;5354512;26;20001;-67
2024/04/17 09:06:30;;;;;;;;;;;;;;;7.43;100.00;95879.13;5358986;26;20467;-69
2024/04/17 09:08:56;;;;;;;4.33;1.90;;;;;;;7.34;100.00;95876.66;5330391;26;19995;-68
2024/04/17 09:11:22;;;;;;;1.83;1.23;;;;;;;7.13;100.00;95879.03;5352529;26;21075;-69
2024/04/17 09:13:48;;;;;;;2.25;1.58;;;;;;;6.72;100.00;95890.41;5362139;26;20496;-69
2024/04/17 09:16:13;;;;;;;2.80;1.35;;;;;;;7.00;100.00;95890.09;5351575;26;20007;-70
2024/04/17 09:18:40;;;;;;;1.52;1.23;;;;;;;6.95;100.00;95881.47;5347031;26;20077;-69
2024/04/17 09:21:09;;;;;;;3.60;1.65;;;;;;;6.74;100.00;95887.34;5351879;26;20332;-67
2024/04/17 09:23:35;;;;;;;2.47;1.80;;;;;;;6.82;100.00;95889.03;5335906;26;20055;-67
2024/04/17 09:26:11;;;;;;;1.95;1.50;;;;;;;6.61;100.00;95886.69;5359634;26;20012;-68
2024/04/17 09:28:37;;;;;;;2.67;1.35;;;;;;;6.58;100.00;95882.75;5358132;26;20078;-68
2024/04/17 09:31:05;;;;;;;2.88;1.60;;;;;;;6.38;100.00;95876.56;5355872;26;20013;-68
2024/04/17 09:33:30;;;;;;;2.75;1.23;;;;;;;6.31;100.00;95890.03;5340773;26;20007;-67
2024/04/17 09:36:00;;;;;;;1.58;1.20;;;;;;;6.02;100.00;95885.94;5359432;26;20341;-67
2024/04/17 09:38:25;;;;;;;3.08;1.58;;;;;;;6.11;100.00;95886.53;5328424;26;20007;-68
2024/04/17 09:40:51;;;;;;;3.05;1.20;;;;;;;5.80;100.00;95892.81;5359913;26;20331;-67
2024/04/17 09:43:26;;;;;;;2.15;1.40;;;;;;;5.78;100.00;95890.47;5351825;26;20000;-68
2024/04/17 09:45:59;;;;;;;1.83;1.05;;;;;;;5.93;100.00;95884.19;5360234;26;20030;-68
2024/04/17 09:48:27;;;;;;;1.63;1.25;;;;;;;5.99;100.00;95887.44;5342046;26;19997;-67
2024/04/17 09:51:07;;;;;;;2.35;1.00;;;;;;;5.75;100.00;95888.44;5373614;26;20004;-67
2024/04/17 09:53:35;;;;;;;2.70;1.20;;;;;;;5.71;100.00;95891.09;5359475;26;20052;-67
2024/04/17 09:56:02;;;;;;;1.45;1.00;;;;;;;5.75;100.00;95885.72;5359368;26;20011;-66
2024/04/17 09:58:32;;;;;;;2.38;1.30;;;;;;;5.88;100.00;95895.31;5328397;26;20099;-67
2024/04/17 10:01:06;;;;;;;3.10;1.10;;;;;;;6.17;100.00;95892.47;5347645;26;20085;-67
2024/04/17 10:03:32;;;;;;;1.02;0.73;;;;;;;5.87;100.00;95873.94;5351334;26;20000;-67
2024/04/17 10:05:59;;;;;;;1.85;1.10;;;;;;;6.09;100.00;95881.44;5359359;26;20007;-67
2024/04/17 10:08:29;;;;;;;2.83;1.25;;;;;;;6.13;100.00;95878.78;5350501;26;19997;-67
2024/04/17 10:10:54;;;;;;;1.08;0.80;;;;;;;6.30;100.00;95869.41;5358381;26;20015;-67
2024/04/17 10:13:22;;;;;;;1.45;1.10;;;;;;;6.40;100.00;95873.50;5321747;26;20004;-67
2024/04/17 10:15:48;;;;;;;1.67;1.33;;;;;;;6.63;100.00;95879.75;5359033;26;20024;-68
2024/04/17 10:18:14;;;;;;;0.93;0.82;;;;;;;6.91;100.00;95873.22;5336007;26;20012;-68
2024/04/17 10:20:41;;;;;;;7.93;4.38;;;;;;;7.54;100.00;95876.56;5359760;26;20011;-68
2024/04/17 10:23:08;;;;;;;1.23;0.90;;;;;;;7.64;100.00;95887.63;5340104;26;20074;-67
2024/04/17 10:25:34;;;;;;;1.23;1.00;;;;;;;7.52;100.00;95897.94;5351799;26;19996;-68
2024/04/17 10:28:12;;;;;;;3.97;1.25;;;;;;;7.62;100.00;95927.31;5358414;26;20079;-68
2024/04/17 10:30:38;;;;;;;2.72;1.30;;;;;;;7.03;100.00;95932.97;5358273;26;20000;-67
2024/04/17 10:33:35;;;;;;;3.63;1.50;;;;;;;6.04;100.00;95927.94;5339503;26;20001;-65
2024/04/17 10:36:03;;;;;;;3.05;1.40;;;;;;;4.79;100.00;95942.00;5340768;26;20011;-66
2024/04/17 10:38:30;;;;;;;3.55;1.60;;;;;;;4.40;100.00;95930.88;5339218;26;20078;-67
2024/04/17 10:40:57;;;;;;;1.70;1.30;;;;;;;4.45;100.00;95944.19;5344031;26;20026;-67
2024/04/17 10:43:23;;;;;;;1.40;1.30;;;;;;;4.39;100.00;95938.25;5351044;26;20633;-66
2024/04/17 10:46:04;;;;;;;2.00;1.40;;;;;;;4.27;100.00;95945.59;5358451;26;20001;-67
2024/04/17 10:48:29;;;;;;;1.70;1.10;;;;;;;4.32;100.00;95929.91;5358038;26;20001;-67
2024/04/17 10:50:55;;;;;;;2.30;1.30;;;;;;;4.08;100.00;95932.69;5366421;26;20035;-66
2024/04/17 10:53:21;;;;;;;3.08;1.50;;;;;;;4.31;100.00;95935.66;5356757;26;20012;-67
2024/04/17 10:55:50;;;;;;;4.20;2.03;;;;;;;4.72;100.00;95933.69;5312663;26;20085;-67
2024/04/17 10:58:16;;;;;;;2.37;1.37;;;;;;;4.94;100.00;95938.53;5351454;26;20090;-68
2024/04/17 11:00:42;;;;;;;2.63;1.65;;;;;;;5.26;100.00;95930.41;5358992;26;20076;-67
2024/04/17 11:03:11;;;;;;;4.20;2.22;;;;;;;5.49;100.00;95930.56;5349942;26;20793;-67
2024/04/17 11:05:36;;;;;;;2.00;1.50;;;;;;;5.72;100.00;95930.69;5358278;26;20000;-67
2024/04/17 11:08:02;;;;;;;1.52;1.15;;;;;;;6.13;100.00;95933.16;5353982;26;20011;-66
2024/04/17 11:10:27;;;;;;;2.83;1.20;;;;;;;6.58;100.00;95920.84;5357504;26;20016;-67
2024/04/17 11:12:52;;;;;;;1.35;1.00;;;;;;;6.82;100.00;95927.91;5347392;26;20001;-66
2024/04/17 11:15:18;;;;;;;1.52;1.05;;;;;;;7.33;100.00;95928.78;5332095;26;20012;-67
2024/04/17 11:17:44;;;;;;;2.72;1.30;;;;;;;7.51;100.00;95916.25;5342413;26;20000;-68
2024/04/17 11:20:10;;;;;;;2.22;1.25;;;;;;;7.43;100.00;95926.22;5332933;26;20001;-67
2024/04/17 11:22:36;;;;;;;1.92;0.88;;;;;;;7.19;100.00;95932.06;5360517;26;20011;-68
2024/04/17 11:25:03;;;;;;;3.30;1.20;;;;;;;6.92;100.00;95931.22;5368674;26;20004;-66
2024/04/17 11:27:29;;;;;;;7.57;3.08;;;;;;;6.13;100.00;95933.94;5364105;26;20470;-67
2024/04/17 11:29:56;;;;;;;4.00;2.28;;;;;;;5.49;100.00;95930.56;5342773;26;20000;-67